Time;durP1;ratioP1;P1;durP2;ratioP2;P2;SDS_P1;SDS_P2;PMS_P1;PMS_P2;Temp;Humidity;BMP_temperature;BMP_pressure;BME280_temperature;BME280_humidity;BME280_pressure;Samples;Min_cycle;Max_cycle;Signal;HPM_P1;HPM_P2
2022/03/22 00:00:46;;;;;;;17.00;13.55;;;6.00;51.20;;;;;;5033567;28;20206;-56
2022/03/22 00:03:14;;;;;;;19.42;14.48;;;6.00;51.30;;;;;;5033205;28;20256;-56
2022/03/22 00:05:44;;;;;;;16.80;13.38;;;6.00;51.50;;;;;;5033504;28;20297;-55
2022/03/22 00:08:12;;;;;;;18.00;13.18;;;5.90;51.60;;;;;;5033531;28;20199;-57
2022/03/22 00:10:39;;;;;;;18.48;14.30;;;5.90;51.70;;;;;;5033761;28;20229;-56
2022/03/22 00:13:07;;;;;;;16.27;13.65;;;5.90;51.80;;;;;;5033586;28;20207;-56
2022/03/22 00:15:35;;;;;;;19.17;14.18;;;5.90;51.80;;;;;;5033192;28;20223;-57
2022/03/22 00:18:02;;;;;;;18.85;13.73;;;5.90;52.50;;;;;;5033433;28;20213;-57
2022/03/22 00:20:29;;;;;;;21.23;14.30;;;5.90;52.10;;;;;;5033108;28;20233;-56
2022/03/22 00:22:58;;;;;;;16.17;13.85;;;5.90;52.20;;;;;;5033108;28;20206;-56
2022/03/22 00:25:25;;;;;;;16.27;14.00;;;5.90;52.20;;;;;;5035716;28;20202;-55
2022/03/22 00:27:53;;;;;;;19.10;14.52;;;5.90;52.30;;;;;;5037202;28;20234;-55
2022/03/22 00:30:24;;;;;;;17.80;14.35;;;5.90;52.40;;;;;;5036938;28;20674;-56
2022/03/22 00:32:53;;;;;;;17.10;13.45;;;5.80;52.50;;;;;;5036824;28;20551;-55
2022/03/22 00:35:22;;;;;;;19.52;14.27;;;5.80;52.70;;;;;;5036825;28;20633;-55
2022/03/22 00:37:50;;;;;;;19.15;14.30;;;5.80;52.80;;;;;;5037491;28;20651;-55
2022/03/22 00:40:19;;;;;;;21.00;16.02;;;5.80;52.90;;;;;;5037250;28;20210;-55
2022/03/22 00:42:47;;;;;;;16.05;13.80;;;5.80;53.00;;;;;;5037426;28;20210;-56
2022/03/22 00:45:17;;;;;;;19.58;14.30;;;5.70;53.10;;;;;;5036787;28;20201;-55
2022/03/22 00:47:45;;;;;;;16.55;14.20;;;5.70;53.30;;;;;;5036692;28;20601;-55
2022/03/22 00:50:13;;;;;;;18.85;14.20;;;5.70;53.40;;;;;;5037029;28;20214;-56
2022/03/22 00:52:41;;;;;;;16.15;14.13;;;5.70;53.60;;;;;;5036799;28;20206;-56
2022/03/22 00:55:09;;;;;;;17.98;14.30;;;5.70;53.70;;;;;;5036826;28;20256;-56
2022/03/22 00:57:38;;;;;;;21.27;15.82;;;5.70;53.80;;;;;;5036897;28;20586;-56
2022/03/22 01:00:09;;;;;;;18.00;14.65;;;5.60;53.90;;;;;;5036445;28;20717;-55
2022/03/22 01:02:38;;;;;;;19.00;14.35;;;5.60;54.10;;;;;;5036575;28;20642;-55
2022/03/22 01:05:08;;;;;;;18.48;14.50;;;5.60;54.20;;;;;;5036474;28;20562;-55
2022/03/22 01:07:35;;;;;;;17.45;14.50;;;5.60;54.20;;;;;;5036206;28;20316;-55
2022/03/22 01:10:05;;;;;;;17.50;13.73;;;5.60;54.40;;;;;;5036154;28;20669;-55
2022/03/22 01:12:34;;;;;;;16.92;14.05;;;5.60;54.40;;;;;;5036645;28;20198;-56
2022/03/22 01:15:02;;;;;;;14.93;13.40;;;5.60;54.60;;;;;;5036227;28;20226;-55
2022/03/22 01:17:31;;;;;;;18.48;13.60;;;5.60;54.60;;;;;;5036196;28;20568;-56
2022/03/22 01:19:58;;;;;;;17.30;14.45;;;5.60;54.60;;;;;;5036480;28;20575;-56
2022/03/22 01:22:25;;;;;;;17.98;13.50;;;5.60;54.70;;;;;;5036241;28;20209;-56
2022/03/22 01:24:53;;;;;;;20.13;13.82;;;5.60;54.80;;;;;;5036514;28;20202;-55
2022/03/22 01:27:21;;;;;;;22.17;16.10;;;5.60;54.90;;;;;;5035934;28;20257;-55
2022/03/22 01:29:48;;;;;;;16.33;14.48;;;5.60;55.00;;;;;;5035881;28;20620;-56
2022/03/22 01:32:16;;;;;;;17.17;13.88;;;5.60;55.10;;;;;;5035917;28;20211;-55
2022/03/22 01:34:43;;;;;;;17.92;14.85;;;5.60;55.20;;;;;;5037240;28;20626;-56
2022/03/22 01:37:11;;;;;;;22.27;14.52;;;5.60;55.20;;;;;;5034785;28;20229;-55
2022/03/22 01:39:38;;;;;;;18.25;14.48;;;5.50;55.30;;;;;;5035866;28;20229;-56
2022/03/22 01:42:05;;;;;;;17.75;15.10;;;5.50;55.40;;;;;;5035526;28;20202;-56
2022/03/22 01:44:33;;;;;;;17.25;13.13;;;5.50;55.50;;;;;;5036216;28;20202;-55
2022/03/22 01:47:02;;;;;;;17.92;15.07;;;5.50;55.50;;;;;;5035336;28;20599;-54
2022/03/22 01:49:30;;;;;;;14.48;12.57;;;5.50;55.60;;;;;;5035711;28;20303;-55
2022/03/22 01:51:57;;;;;;;17.45;14.52;;;5.50;55.60;;;;;;5035483;28;20206;-56
2022/03/22 01:54:25;;;;;;;18.20;14.05;;;5.50;55.80;;;;;;5035149;28;20248;-56
2022/03/22 01:56:52;;;;;;;17.98;14.10;;;5.50;55.90;;;;;;5035285;28;20585;-56
2022/03/22 01:59:19;;;;;;;15.32;13.13;;;5.50;56.00;;;;;;5035718;28;20230;-56
2022/03/22 02:07:21;;;;;;;19.45;14.75;;;5.40;56.20;;;;;;5035225;28;20297;-56
2022/03/22 02:09:48;;;;;;;17.25;13.70;;;5.40;56.90;;;;;;5035318;28;20210;-56
2022/03/22 02:12:15;;;;;;;20.67;14.38;;;5.40;56.40;;;;;;5035342;28;20219;-56
2022/03/22 02:14:42;;;;;;;20.30;14.95;;;5.40;56.50;;;;;;5035325;28;20248;-56
2022/03/22 02:17:10;;;;;;;16.80;13.80;;;5.30;56.60;;;;;;5035347;28;20222;-56
2022/03/22 02:19:40;;;;;;;16.45;14.50;;;5.30;56.70;;;;;;5035160;28;20206;-54
2022/03/22 02:22:11;;;;;;;18.83;15.18;;;5.30;57.00;;;;;;5034984;28;20202;-55
2022/03/22 02:24:40;;;;;;;22.15;15.23;;;5.20;57.10;;;;;;5035002;28;20193;-56
2022/03/22 02:27:08;;;;;;;16.58;13.00;;;5.20;57.30;;;;;;5034832;28;20265;-56
2022/03/22 02:29:36;;;;;;;17.73;14.70;;;5.20;57.50;;;;;;5034825;28;20257;-54
2022/03/22 02:32:03;;;;;;;18.20;14.18;;;5.20;57.70;;;;;;5034444;28;20198;-56
2022/03/22 02:34:31;;;;;;;19.40;14.60;;;5.20;57.90;;;;;;5034678;28;20218;-54
2022/03/22 02:36:58;;;;;;;16.15;14.38;;;5.20;58.10;;;;;;5034354;28;20318;-54
2022/03/22 02:39:25;;;;;;;18.15;13.80;;;5.10;58.20;;;;;;5034331;28;20238;-55
2022/03/22 02:41:54;;;;;;;17.95;13.98;;;5.10;58.50;;;;;;5034343;28;20198;-56
2022/03/22 02:44:21;;;;;;;26.45;14.65;;;5.10;58.60;;;;;;5034769;28;20280;-56
2022/03/22 02:46:48;;;;;;;20.70;15.05;;;5.00;58.80;;;;;;5034415;28;20222;-56
2022/03/22 02:49:16;;;;;;;18.08;14.15;;;5.10;59.00;;;;;;5033579;28;20542;-56
2022/03/22 02:51:43;;;;;;;17.75;13.15;;;5.00;59.10;;;;;;5034672;28;20209;-56
2022/03/22 02:54:10;;;;;;;17.15;14.43;;;5.00;59.20;;;;;;5034192;28;20209;-56
2022/03/22 02:56:37;;;;;;;17.08;13.35;;;5.00;59.30;;;;;;5034448;28;20226;-55
2022/03/22 02:59:05;;;;;;;22.05;15.52;;;5.00;59.50;;;;;;5034440;28;20213;-55
2022/03/22 03:01:34;;;;;;;15.23;12.38;;;5.00;59.60;;;;;;5034152;28;20202;-56
2022/03/22 03:04:01;;;;;;;18.25;13.93;;;5.00;59.70;;;;;;5034399;28;20275;-56
2022/03/22 03:06:29;;;;;;;17.85;13.90;;;5.00;59.70;;;;;;5034303;28;20222;-55
2022/03/22 03:08:58;;;;;;;18.20;14.23;;;4.90;59.70;;;;;;5034571;28;20225;-55
2022/03/22 03:11:26;;;;;;;17.67;14.30;;;4.90;59.90;;;;;;5034426;28;20202;-56
2022/03/22 03:16:40;;;;;;;19.52;14.98;;;4.90;60.20;;;;;;5033777;28;20724;-56
2022/03/22 03:19:07;;;;;;;19.55;15.20;;;4.80;60.40;;;;;;5033886;28;20253;-56
2022/03/22 03:21:35;;;;;;;20.70;14.52;;;4.80;60.60;;;;;;5033594;28;20202;-56
2022/03/22 03:24:02;;;;;;;20.35;14.45;;;4.80;60.90;;;;;;5033820;28;20213;-56
2022/03/22 03:26:30;;;;;;;16.42;13.50;;;4.70;61.10;;;;;;5033490;28;20214;-55
2022/03/22 03:28:57;;;;;;;16.95;14.00;;;4.70;61.40;;;;;;5034054;28;20245;-56
2022/03/22 03:31:25;;;;;;;17.55;14.35;;;4.70;61.70;;;;;;5033458;28;20674;-56
2022/03/22 03:33:54;;;;;;;18.42;14.35;;;4.60;62.00;;;;;;5033338;28;20206;-55
2022/03/22 03:36:22;;;;;;;20.10;14.48;;;4.60;62.20;;;;;;5033127;28;20226;-55
2022/03/22 03:38:49;;;;;;;17.83;13.30;;;4.60;62.40;;;;;;5033215;28;20202;-56
2022/03/22 03:47:03;;;;;;;17.25;13.95;;;4.60;62.80;;;;;;5033377;28;20184;-55
2022/03/22 03:47:05;;;;;;;22.60;15.05;;;4.60;63.00;;;;;;5033473;28;20301;-55
2022/03/22 03:49:34;;;;;;;17.08;13.10;;;4.50;63.00;;;;;;5033244;28;20210;-55
2022/03/22 03:52:01;;;;;;;15.60;14.00;;;4.50;63.20;;;;;;5033869;28;20262;-55
2022/03/22 03:54:29;;;;;;;17.48;13.25;;;4.50;63.60;;;;;;5033663;28;20198;-56
2022/03/22 03:56:56;;;;;;;21.10;14.55;;;4.50;64.00;;;;;;5033132;28;20222;-56
2022/03/22 03:59:23;;;;;;;18.63;14.65;;;4.50;64.30;;;;;;5032941;28;20221;-56
2022/03/22 04:01:50;;;;;;;18.67;13.68;;;4.50;64.50;;;;;;5033706;28;20210;-56
2022/03/22 04:04:17;;;;;;;17.20;13.55;;;4.50;64.50;;;;;;5033316;28;20210;-56
2022/03/22 04:09:29;;;;;;;18.60;14.43;;;4.50;64.30;;;;;;5096989;27;20538;-57
2022/03/22 04:11:56;;;;;;;19.45;15.50;;;4.50;64.60;;;;;;5095211;28;20200;-56
2022/03/22 04:14:24;;;;;;;22.50;16.75;;;4.40;64.60;;;;;;5096686;28;20215;-57
2022/03/22 04:16:51;;;;;;;20.83;16.00;;;4.40;64.90;;;;;;5096483;28;20234;-54
2022/03/22 04:19:18;;;;;;;23.95;16.40;;;4.40;65.20;;;;;;5095883;28;20230;-56
2022/03/22 04:21:46;;;;;;;22.85;15.65;;;4.40;65.50;;;;;;5093732;28;20211;-56
2022/03/22 04:24:13;;;;;;;22.50;15.40;;;4.40;65.70;;;;;;5092285;28;20200;-57
2022/03/22 04:26:44;;;;;;;19.95;14.82;;;4.40;66.00;;;;;;5092376;28;20590;-55
2022/03/22 04:34:38;;;;;;;19.50;14.02;;;4.30;66.60;;;;;;5057032;28;20239;-57
2022/03/22 04:37:07;;;;;;;19.05;14.35;;;4.30;66.80;;;;;;5090374;28;20220;-57
2022/03/22 04:39:34;;;;;;;18.48;14.38;;;4.30;66.70;;;;;;5090571;28;20200;-57
2022/03/22 04:42:04;;;;;;;18.15;14.00;;;4.30;66.80;;;;;;5090353;28;20201;-57
2022/03/22 04:44:31;;;;;;;19.73;13.98;;;4.30;66.90;;;;;;5090460;28;20222;-56
2022/03/22 04:46:59;;;;;;;20.15;14.63;;;4.30;67.00;;;;;;5090221;28;20220;-56
2022/03/22 04:49:27;;;;;;;18.08;13.82;;;4.30;67.20;;;;;;5090039;28;20703;-57
2022/03/22 04:57:26;;;;;;;22.67;14.07;;;4.30;67.70;;;;;;5090132;28;20218;-57
2022/03/22 04:59:54;;;;;;;21.05;14.50;;;4.20;67.80;;;;;;5090145;28;20660;-57
2022/03/22 05:02:21;;;;;;;18.05;13.90;;;4.20;68.00;;;;;;5090400;28;20222;-57
2022/03/22 05:04:48;;;;;;;22.98;14.73;;;4.20;68.20;;;;;;5090650;28;20207;-57
2022/03/22 05:07:15;;;;;;;20.27;15.93;;;4.20;68.30;;;;;;5090294;28;20220;-57
2022/03/22 05:09:42;;;;;;;18.70;14.57;;;4.20;68.50;;;;;;5090232;28;20411;-57
2022/03/22 05:12:13;;;;;;;21.17;15.27;;;4.20;68.90;;;;;;5095068;28;20215;-56
2022/03/22 05:14:42;;;;;;;20.00;15.10;;;4.20;69.20;;;;;;5093372;28;20648;-55
2022/03/22 05:17:11;;;;;;;17.95;15.85;;;4.20;69.40;;;;;;5092559;28;20224;-58
2022/03/22 05:19:40;;;;;;;17.60;13.85;;;4.20;69.60;;;;;;5085054;28;20288;-55
2022/03/22 05:22:07;;;;;;;22.63;15.57;;;4.20;69.60;;;;;;5078104;28;20246;-58
2022/03/22 05:24:35;;;;;;;20.17;16.73;;;4.20;69.70;;;;;;5077494;28;20200;-55
2022/03/22 05:27:02;;;;;;;21.08;15.90;;;4.20;69.90;;;;;;5078039;28;20232;-56
2022/03/22 05:29:30;;;;;;;20.42;15.20;;;4.10;70.00;;;;;;5078083;28;20221;-55
2022/03/22 05:31:58;;;;;;;16.50;14.65;;;4.10;70.10;;;;;;5076819;28;20231;-56
2022/03/22 05:34:26;;;;;;;22.88;16.17;;;4.10;70.30;;;;;;5076431;28;20247;-56
2022/03/22 05:36:53;;;;;;;21.95;15.70;;;4.20;70.50;;;;;;5076249;28;20225;-57
2022/03/22 05:39:20;;;;;;;26.60;15.85;;;4.20;70.60;;;;;;5075923;28;20197;-57
2022/03/22 05:41:47;;;;;;;19.95;14.27;;;4.20;70.70;;;;;;5076616;28;20207;-56
2022/03/22 05:44:14;;;;;;;19.90;14.52;;;4.20;70.60;;;;;;5077410;28;20201;-56
2022/03/22 05:46:42;;;;;;;20.35;15.13;;;4.30;70.60;;;;;;5076351;28;20232;-57
2022/03/22 05:49:11;;;;;;;18.90;14.55;;;4.30;70.30;;;;;;5076087;28;20240;-56
2022/03/22 05:51:38;;;;;;;21.30;16.75;;;4.40;70.20;;;;;;5075756;28;20251;-56
2022/03/22 05:54:05;;;;;;;17.95;14.10;;;4.40;70.00;;;;;;5075474;28;20197;-54
2022/03/22 05:56:32;;;;;;;21.38;15.07;;;4.50;69.80;;;;;;5075795;28;20221;-57
2022/03/22 05:59:00;;;;;;;18.05;13.98;;;4.50;69.60;;;;;;5075951;28;20207;-58
2022/03/22 06:01:28;;;;;;;22.10;14.85;;;4.60;69.60;;;;;;5076156;28;20657;-56
2022/03/22 06:03:55;;;;;;;18.20;15.30;;;4.60;69.40;;;;;;5075620;28;20219;-56
2022/03/22 06:06:24;;;;;;;18.75;14.15;;;4.70;69.30;;;;;;5075275;28;20221;-56
2022/03/22 06:08:51;;;;;;;23.48;15.77;;;4.80;69.00;;;;;;5075290;28;20236;-56
2022/03/22 06:11:18;;;;;;;23.40;15.68;;;4.90;68.90;;;;;;5075755;28;20228;-57
2022/03/22 06:13:46;;;;;;;24.48;16.92;;;4.90;68.50;;;;;;5075087;28;20250;-56
2022/03/22 06:16:13;;;;;;;19.92;15.98;;;5.00;68.20;;;;;;5075234;28;20563;-55
2022/03/22 06:18:40;;;;;;;19.98;15.23;;;5.10;67.80;;;;;;5075699;28;20559;-56
2022/03/22 06:21:07;;;;;;;21.00;16.33;;;5.20;67.50;;;;;;5074931;28;20205;-56
2022/03/22 06:23:36;;;;;;;19.45;16.55;;;5.20;67.00;;;;;;5075338;28;20205;-58
2022/03/22 06:26:03;;;;;;;18.25;15.00;;;5.30;66.70;;;;;;5075627;28;20221;-57
2022/03/22 06:28:30;;;;;;;22.77;15.55;;;5.40;66.30;;;;;;5081791;28;20224;-56
2022/03/22 06:30:58;;;;;;;19.17;14.77;;;5.50;65.90;;;;;;5074063;28;20203;-56
2022/03/22 06:33:25;;;;;;;19.63;15.57;;;5.60;65.60;;;;;;5074852;28;20644;-57
2022/03/22 06:35:53;;;;;;;20.98;14.63;;;5.70;65.20;;;;;;5074491;28;20229;-57
2022/03/22 06:38:21;;;;;;;21.90;14.77;;;5.80;64.80;;;;;;5074430;28;20232;-56
2022/03/22 06:40:50;;;;;;;22.55;17.80;;;5.90;64.30;;;;;;5075059;28;20229;-57
2022/03/22 06:43:18;;;;;;;22.63;15.68;;;6.00;63.80;;;;;;5074557;28;20201;-57
2022/03/22 06:45:46;;;;;;;17.20;14.98;;;6.10;63.20;;;;;;5074531;28;20209;-57
2022/03/22 06:48:15;;;;;;;20.38;15.43;;;6.20;62.60;;;;;;5074198;28;20213;-57
2022/03/22 06:50:43;;;;;;;17.15;15.40;;;6.30;62.00;;;;;;5074631;28;20208;-56
2022/03/22 06:53:11;;;;;;;18.00;15.05;;;6.40;61.60;;;;;;5074614;28;20212;-57
2022/03/22 06:55:38;;;;;;;21.45;15.85;;;6.50;60.90;;;;;;5075325;28;20200;-57
2022/03/22 06:58:07;;;;;;;21.05;15.07;;;6.70;60.40;;;;;;5074547;28;20251;-57
2022/03/22 07:00:35;;;;;;;18.20;15.00;;;6.70;59.80;;;;;;5074761;28;20197;-57
2022/03/22 07:03:03;;;;;;;26.77;15.85;;;6.90;59.40;;;;;;5075245;28;20216;-57
2022/03/22 07:05:31;;;;;;;20.95;15.55;;;7.00;58.90;;;;;;5071863;28;20201;-57
2022/03/22 07:07:58;;;;;;;18.75;15.07;;;7.10;58.30;;;;;;5076948;28;20236;-56
2022/03/22 07:10:26;;;;;;;19.02;15.30;;;7.30;57.80;;;;;;5078482;28;20227;-56
2022/03/22 07:12:54;;;;;;;20.92;14.38;;;7.40;57.10;;;;;;5076640;28;20204;-57
2022/03/22 07:15:27;;;;;;;17.88;14.38;;;7.60;56.50;;;;;;5077708;28;20205;-57
2022/03/22 07:17:54;;;;;;;16.95;14.63;;;7.80;55.90;;;;;;5079062;28;20221;-56
2022/03/22 07:20:23;;;;;;;18.10;13.75;;;8.00;55.20;;;;;;5077837;28;20273;-56
2022/03/22 07:22:50;;;;;;;20.95;15.38;;;8.10;54.30;;;;;;5073746;28;20224;-55
2022/03/22 07:25:18;;;;;;;22.27;15.55;;;8.20;53.50;;;;;;5075100;28;20215;-56
2022/03/22 07:27:45;;;;;;;19.17;14.80;;;8.40;52.90;;;;;;5075474;28;20217;-56
2022/03/22 07:30:12;;;;;;;17.98;14.88;;;8.50;52.50;;;;;;5074189;28;20489;-55
2022/03/22 07:32:41;;;;;;;17.65;14.40;;;8.70;52.10;;;;;;5078399;28;20207;-56
2022/03/22 07:35:09;;;;;;;16.30;14.60;;;8.90;51.70;;;;;;5077146;28;20210;-57
2022/03/22 07:37:37;;;;;;;16.00;13.40;;;9.00;51.20;;;;;;5077147;28;20710;-57
2022/03/22 07:40:05;;;;;;;18.00;15.37;;;9.20;50.80;;;;;;5077016;28;20496;-57
2022/03/22 07:42:33;;;;;;;20.77;14.60;;;9.30;50.20;;;;;;5074924;28;20446;-56
2022/03/22 07:45:04;;;;;;;16.57;14.10;;;9.50;49.80;;;;;;5074470;28;20471;-58
2022/03/22 07:47:33;;;;;;;21.65;16.42;;;9.60;49.20;;;;;;5073504;28;20463;-57
2022/03/22 07:55:32;;;;;;;18.90;14.97;;;10.10;46.80;;;;;;5074284;28;20436;-58
2022/03/22 07:57:59;;;;;;;16.53;14.00;;;10.10;46.80;;;;;;5074490;28;20829;-57
2022/03/22 08:00:28;;;;;;;17.70;14.70;;;10.20;46.10;;;;;;5078050;28;20444;-56
2022/03/22 08:02:56;;;;;;;20.17;15.60;;;10.40;45.80;;;;;;5078886;28;20447;-57
2022/03/22 08:05:26;;;;;;;17.30;14.35;;;10.50;45.60;;;;;;5078331;28;20833;-56
2022/03/22 08:07:54;;;;;;;17.90;14.60;;;10.70;45.60;;;;;;5078125;28;20644;-56
2022/03/22 08:10:22;;;;;;;17.80;15.00;;;10.80;45.40;;;;;;5077544;28;20479;-57
2022/03/22 08:12:49;;;;;;;20.20;16.00;;;10.90;45.20;;;;;;5075610;28;20454;-56
2022/03/22 08:15:17;;;;;;;17.08;14.10;;;11.00;44.90;;;;;;5076438;28;20451;-55
2022/03/22 08:17:45;;;;;;;18.20;13.40;;;11.10;44.60;;;;;;5078357;28;20219;-56
2022/03/22 08:20:14;;;;;;;17.57;14.47;;;11.30;44.40;;;;;;5076927;28;20447;-57
2022/03/22 08:22:51;;;;;;;17.33;14.73;;;11.50;44.30;;;;;;5074339;28;20458;-56
2022/03/22 08:25:23;;;;;;;18.97;14.20;;;11.60;44.10;;;;;;5074815;28;20467;-56
2022/03/22 08:27:50;;;;;;;18.23;14.40;;;11.70;44.10;;;;;;5074289;28;20876;-58
2022/03/22 08:30:20;;;;;;;21.80;14.80;;;11.70;43.90;;;;;;5074070;28;20527;-57
2022/03/22 08:32:48;;;;;;;21.13;15.83;;;11.80;43.90;;;;;;5077996;28;20428;-57
2022/03/22 08:35:15;;;;;;;15.77;14.02;;;11.80;43.80;;;;;;5082386;28;20439;-58
2022/03/22 08:37:42;;;;;;;16.80;14.77;;;11.90;43.80;;;;;;5079299;28;20228;-57
2022/03/22 08:40:13;;;;;;;16.80;14.77;;;12.00;43.70;;;;;;5073853;28;20200;-57
2022/03/22 08:42:43;;;;;;;17.67;14.90;;;12.00;43.70;;;;;;5074916;28;20504;-56
2022/03/22 08:45:12;;;;;;;17.90;14.33;;;12.10;43.60;;;;;;5074249;28;20451;-56
2022/03/22 08:47:40;;;;;;;16.53;14.63;;;12.20;43.40;;;;;;5073928;28;20820;-56
2022/03/22 08:50:09;;;;;;;17.13;15.40;;;12.40;43.30;;;;;;5074023;28;20483;-57
2022/03/22 08:52:37;;;;;;;18.10;14.73;;;12.50;43.20;;;;;;5075040;28;20456;-56
2022/03/22 08:55:04;;;;;;;18.47;15.53;;;12.60;43.10;;;;;;5075668;28;20832;-56
2022/03/22 08:57:33;;;;;;;18.23;14.80;;;12.70;43.00;;;;;;5079664;28;20468;-56
2022/03/22 09:00:00;;;;;;;19.60;14.93;;;12.80;43.00;;;;;;5077809;28;20502;-55
2022/03/22 09:02:27;;;;;;;16.33;14.55;;;12.90;43.00;;;;;;5076717;28;20801;-57
2022/03/22 09:07:38;;;;;;;17.70;14.97;;;13.00;42.80;;;;;;5079404;28;20536;-56
2022/03/22 09:10:06;;;;;;;20.30;15.43;;;13.10;42.70;;;;;;5081086;28;20487;-55
2022/03/22 09:12:35;;;;;;;15.67;13.97;;;13.30;42.70;;;;;;5081454;28;20443;-56
2022/03/22 09:15:02;;;;;;;17.43;14.30;;;13.40;42.50;;;;;;5080865;28;20450;-57
2022/03/22 09:17:29;;;;;;;15.40;13.80;;;13.60;42.30;;;;;;5081862;28;20459;-55
2022/03/22 09:19:56;;;;;;;18.90;15.47;;;13.70;42.10;;;;;;5082404;28;20453;-55
2022/03/22 09:22:23;;;;;;;17.33;14.88;;;13.80;41.80;;;;;;5082732;28;20457;-58
2022/03/22 09:24:51;;;;;;;17.65;15.85;;;13.90;41.60;;;;;;5083384;28;20438;-56
2022/03/22 09:27:18;;;;;;;17.50;15.43;;;14.00;42.10;;;;;;5082840;28;20254;-57
2022/03/22 09:29:47;;;;;;;17.67;15.77;;;14.10;41.30;;;;;;5082576;28;20461;-57
2022/03/22 09:32:14;;;;;;;18.30;14.73;;;14.20;40.20;;;;;;5084132;28;20669;-57
2022/03/22 09:34:43;;;;;;;15.97;13.63;;;14.30;40.10;;;;;;5083826;28;20201;-56
2022/03/22 09:37:10;;;;;;;18.60;15.27;;;14.50;40.00;;;;;;5083684;28;20463;-56
2022/03/22 09:39:37;;;;;;;16.80;14.98;;;14.60;39.60;;;;;;5086447;28;20422;-57
2022/03/22 09:42:06;;;;;;;19.37;15.80;;;14.80;39.20;;;;;;5087936;28;20197;-56
2022/03/22 09:44:35;;;;;;;17.20;15.30;;;15.00;38.90;;;;;;5085542;28;20449;-60
2022/03/22 09:47:04;;;;;;;16.97;15.17;;;15.10;38.70;;;;;;5084847;28;20459;-54
2022/03/22 09:49:32;;;;;;;15.95;14.35;;;15.10;38.10;;;;;;5085350;28;20486;-56
2022/03/22 09:52:02;;;;;;;18.85;15.02;;;15.20;37.90;;;;;;5082560;28;20200;-57
2022/03/22 09:54:30;;;;;;;19.95;15.02;;;15.30;37.70;;;;;;5084158;28;20281;-57
2022/03/22 09:56:57;;;;;;;20.37;16.00;;;15.40;37.50;;;;;;5081969;28;20217;-55
2022/03/22 09:59:24;;;;;;;19.57;13.93;;;15.50;37.40;;;;;;5083736;28;20455;-56
2022/03/22 10:01:51;;;;;;;19.20;14.90;;;15.60;37.20;;;;;;5090908;28;20443;-58
2022/03/22 10:04:19;;;;;;;19.02;14.85;;;15.60;36.80;;;;;;5084096;28;20457;-56
2022/03/22 10:06:54;;;;;;;17.33;14.73;;;15.70;36.50;;;;;;5073969;28;20685;-56
2022/03/22 10:09:31;;;;;;;18.70;15.00;;;15.80;36.20;;;;;;5083977;28;20274;-56
2022/03/22 10:11:59;;;;;;;30.00;23.57;;;15.80;36.10;;;;;;5065077;28;20454;-56
2022/03/22 10:14:38;;;;;;;26.07;20.73;;;15.80;35.90;;;;;;5073665;28;20447;-56
2022/03/22 10:17:13;;;;;;;22.07;19.53;;;15.90;35.50;;;;;;5078353;28;20462;-57
2022/03/22 10:19:46;;;;;;;18.80;16.87;;;16.00;35.40;;;;;;5076037;28;20442;-57
2022/03/22 10:22:14;;;;;;;17.53;15.17;;;16.10;35.30;;;;;;5077331;28;20427;-56
2022/03/22 10:24:45;;;;;;;21.52;16.17;;;16.20;35.00;;;;;;5075403;28;20517;-56
2022/03/22 10:27:31;;;;;;;17.80;15.93;;;16.20;34.60;;;;;;5074859;28;20228;-56
2022/03/22 10:30:01;;;;;;;20.77;16.10;;;16.30;34.40;;;;;;5074642;28;20474;-56
2022/03/22 10:32:33;;;;;;;17.47;15.23;;;16.40;34.30;;;;;;5074605;28;20455;-57
2022/03/22 10:35:13;;;;;;;19.60;15.93;;;16.60;34.10;;;;;;5058505;28;20439;-56
2022/03/22 10:37:43;;;;;;;17.83;15.93;;;16.70;33.90;;;;;;5075078;28;20463;-55
2022/03/22 10:40:22;;;;;;;15.70;13.67;;;16.70;33.70;;;;;;5075351;28;20447;-56
2022/03/22 10:42:49;;;;;;;16.33;14.63;;;16.70;33.20;;;;;;5074659;28;20442;-56
2022/03/22 10:45:17;;;;;;;19.63;15.40;;;16.70;33.30;;;;;;5075324;28;20446;-58
2022/03/22 10:47:44;;;;;;;17.13;15.30;;;16.80;33.20;;;;;;5075591;28;20471;-56
2022/03/22 10:50:13;;;;;;;20.10;16.20;;;16.80;32.80;;;;;;5075002;28;20483;-60
2022/03/22 10:52:56;;;;;;;19.03;15.43;;;16.80;32.80;;;;;;5074771;28;20680;-57
2022/03/22 10:55:25;;;;;;;17.30;15.57;;;16.90;32.70;;;;;;5077503;28;20877;-57
2022/03/22 10:57:54;;;;;;;19.55;15.10;;;17.00;32.50;;;;;;5087481;28;20449;-57
2022/03/22 11:00:22;;;;;;;21.03;16.23;;;17.00;31.80;;;;;;5089815;28;20200;-56
2022/03/22 11:02:51;;;;;;;18.30;15.20;;;17.00;31.50;;;;;;5090112;28;20571;-56
2022/03/22 11:05:21;;;;;;;21.10;15.77;;;17.00;31.40;;;;;;5088399;28;20443;-58
2022/03/22 11:07:49;;;;;;;17.13;15.33;;;16.90;31.30;;;;;;5074588;28;20236;-57
2022/03/22 11:10:18;;;;;;;20.73;15.50;;;17.00;31.30;;;;;;5074111;28;20486;-57
2022/03/22 11:12:45;;;;;;;22.27;16.10;;;17.00;31.20;;;;;;5055018;28;20448;-57
2022/03/22 11:15:15;;;;;;;17.57;15.23;;;17.10;31.30;;;;;;5054826;28;20201;-58
2022/03/22 11:17:44;;;;;;;17.00;14.37;;;17.10;30.90;;;;;;5054339;28;20514;-57
2022/03/22 11:20:13;;;;;;;16.80;13.50;;;17.20;30.50;;;;;;5069802;28;20450;-56
2022/03/22 11:22:54;;;;;;;23.47;18.23;;;17.30;30.00;;;;;;5074973;28;20458;-57
2022/03/22 11:25:31;;;;;;;16.97;15.10;;;17.50;30.00;;;;;;5075684;28;20522;-56
2022/03/22 11:27:59;;;;;;;17.97;14.37;;;17.60;29.90;;;;;;5074131;28;20439;-58
2022/03/22 11:30:29;;;;;;;19.70;15.67;;;17.70;29.80;;;;;;5073890;28;20854;-57
2022/03/22 11:35:50;;;;;;;18.47;15.60;;;17.80;29.60;;;;;;5074833;28;20494;-56
2022/03/22 11:38:42;;;;;;;20.20;16.60;;;17.90;29.50;;;;;;5074810;28;20970;-57
2022/03/22 11:44:18;;;;;;;19.60;16.77;;;17.90;29.60;;;;;;5079302;28;20449;-57
2022/03/22 11:46:46;;;;;;;15.87;14.17;;;17.90;29.60;;;;;;5078477;28;20463;-58
2022/03/22 11:49:16;;;;;;;20.70;16.17;;;17.80;29.60;;;;;;5081371;28;20473;-57
2022/03/22 11:51:50;;;;;;;17.20;13.37;;;17.80;29.50;;;;;;5082806;28;20815;-57
2022/03/22 11:54:19;;;;;;;16.93;14.50;;;17.80;29.20;;;;;;5075943;28;20897;-56
2022/03/22 11:56:48;;;;;;;22.93;15.80;;;17.90;29.00;;;;;;5075423;28;20463;-56
2022/03/22 11:59:17;;;;;;;16.73;14.93;;;17.90;29.00;;;;;;5073973;28;20431;-59
2022/03/22 12:01:56;;;;;;;15.57;12.98;;;17.90;29.00;;;;;;5075367;28;20455;-57
2022/03/22 12:04:39;;;;;;;16.17;14.13;;;18.00;28.80;;;;;;5075283;28;20193;-57
2022/03/22 12:07:08;;;;;;;17.15;15.35;;;18.10;28.60;;;;;;5074880;28;20683;-57
2022/03/22 12:09:39;;;;;;;21.07;14.43;;;18.20;28.50;;;;;;5072999;28;20567;-58
2022/03/22 12:12:07;;;;;;;15.27;13.53;;;18.20;28.40;;;;;;5072852;28;20445;-56
2022/03/22 12:14:35;;;;;;;15.20;13.70;;;18.20;28.30;;;;;;5073610;28;20475;-55
2022/03/22 12:17:03;;;;;;;19.30;15.17;;;18.30;28.20;;;;;;5073454;28;20459;-58
2022/03/22 12:19:32;;;;;;;15.80;13.40;;;18.40;28.30;;;;;;5072936;28;20439;-59
2022/03/22 12:22:01;;;;;;;16.17;14.30;;;18.40;28.30;;;;;;5074065;28;20445;-57
2022/03/22 12:24:33;;;;;;;19.43;12.80;;;18.40;28.10;;;;;;5073884;28;20452;-58
2022/03/22 12:27:03;;;;;;;15.50;13.90;;;18.50;28.20;;;;;;5073483;28;20463;-58
2022/03/22 12:29:30;;;;;;;15.50;12.70;;;18.60;28.10;;;;;;5073778;28;20788;-58
2022/03/22 12:32:06;;;;;;;18.13;12.15;;;18.70;27.70;;;;;;5077934;28;20471;-57
2022/03/22 12:34:36;;;;;;;15.73;12.70;;;18.60;27.00;;;;;;5078175;28;20247;-57
2022/03/22 12:37:06;;;;;;;10.73;9.50;;;18.50;26.40;;;;;;5076988;28;21002;-56
2022/03/22 12:39:33;;;;;;;18.23;11.50;;;18.40;26.50;;;;;;5077433;28;20982;-57
2022/03/22 12:42:02;;;;;;;15.33;13.17;;;18.30;25.70;;;;;;5077647;28;20439;-56
2022/03/22 12:44:29;;;;;;;15.98;11.75;;;18.30;25.80;;;;;;5076469;28;20923;-57
2022/03/22 12:46:57;;;;;;;14.10;12.70;;;18.20;26.30;;;;;;5076169;28;20243;-57
2022/03/22 12:49:25;;;;;;;16.10;12.97;;;18.30;26.50;;;;;;5077381;28;20476;-57
2022/03/22 12:51:52;;;;;;;15.00;13.40;;;18.30;26.50;;;;;;5076452;28;21008;-58
2022/03/22 12:54:19;;;;;;;14.97;13.37;;;18.40;26.80;;;;;;5076672;28;20197;-58
2022/03/22 12:56:48;;;;;;;15.13;13.45;;;18.50;26.90;;;;;;5076635;28;20983;-58
2022/03/22 12:59:21;;;;;;;15.93;12.88;;;18.50;26.70;;;;;;5076739;28;20658;-58
2022/03/22 13:01:57;;;;;;;14.73;12.93;;;18.60;26.90;;;;;;5076322;28;20207;-57
2022/03/22 13:04:24;;;;;;;19.87;14.60;;;18.70;26.90;;;;;;5063630;28;20454;-56
2022/03/22 13:06:59;;;;;;;17.23;13.67;;;18.80;27.10;;;;;;5056508;28;20476;-54
2022/03/22 13:12:16;;;;;;;20.43;15.10;;;18.80;27.00;;;;;;5076664;28;20446;-57
2022/03/22 13:15:04;;;;;;;16.23;14.37;;;18.90;27.10;;;;;;5076377;28;20446;-58
2022/03/22 13:17:34;;;;;;;17.47;15.73;;;18.90;27.20;;;;;;5076753;28;20459;-57
2022/03/22 13:20:03;;;;;;;49.20;36.42;;;19.00;27.70;;;;;;5077486;28;20860;-56
2022/03/22 13:22:30;;;;;;;27.00;20.07;;;19.10;27.70;;;;;;5081122;28;20280;-58